sensor_id;sensor_type;location;lat;lon;timestamp;temperature;humidity
54938;DHT22;52756;52.826;6.214;2023-04-24T00:00:16;11.80;82.60
54938;DHT22;52756;52.826;6.214;2023-04-24T00:02:43;11.80;82.60
54938;DHT22;52756;52.826;6.214;2023-04-24T00:05:13;11.80;82.60
54938;DHT22;52756;52.826;6.214;2023-04-24T00:07:42;11.80;82.50
54938;DHT22;52756;52.826;6.214;2023-04-24T00:10:09;11.80;82.60
54938;DHT22;52756;52.826;6.214;2023-04-24T00:12:35;11.80;82.50
54938;DHT22;52756;52.826;6.214;2023-04-24T00:15:02;11.90;82.60
54938;DHT22;52756;52.826;6.214;2023-04-24T00:17:28;11.90;82.50
54938;DHT22;52756;52.826;6.214;2023-04-24T00:19:54;11.90;82.40
54938;DHT22;52756;52.826;6.214;2023-04-24T00:22:27;11.90;82.30
54938;DHT22;52756;52.826;6.214;2023-04-24T00:24:54;11.90;82.20
54938;DHT22;52756;52.826;6.214;2023-04-24T00:27:20;12.00;82.00
54938;DHT22;52756;52.826;6.214;2023-04-24T00:29:46;12.00;81.90
54938;DHT22;52756;52.826;6.214;2023-04-24T00:32:12;12.00;81.80
54938;DHT22;52756;52.826;6.214;2023-04-24T00:34:38;12.00;81.70
54938;DHT22;52756;52.826;6.214;2023-04-24T00:37:03;12.00;81.70
54938;DHT22;52756;52.826;6.214;2023-04-24T00:39:29;12.00;82.10
54938;DHT22;52756;52.826;6.214;2023-04-24T00:41:56;12.00;81.60
54938;DHT22;52756;52.826;6.214;2023-04-24T00:44:22;12.00;81.50
54938;DHT22;52756;52.826;6.214;2023-04-24T00:46:49;12.00;81.50
54938;DHT22;52756;52.826;6.214;2023-04-24T00:49:23;12.00;81.50
54938;DHT22;52756;52.826;6.214;2023-04-24T00:51:49;12.00;81.60
54938;DHT22;52756;52.826;6.214;2023-04-24T00:54:17;12.00;81.60
54938;DHT22;52756;52.826;6.214;2023-04-24T00:56:44;12.00;81.60
54938;DHT22;52756;52.826;6.214;2023-04-24T00:59:12;12.10;81.70
54938;DHT22;52756;52.826;6.214;2023-04-24T01:01:39;12.10;81.60
54938;DHT22;52756;52.826;6.214;2023-04-24T01:04:07;12.10;81.50
54938;DHT22;52756;52.826;6.214;2023-04-24T01:06:34;12.10;81.40
54938;DHT22;52756;52.826;6.214;2023-04-24T01:09:00;12.10;81.40
54938;DHT22;52756;52.826;6.214;2023-04-24T01:11:26;12.20;81.40
54938;DHT22;52756;52.826;6.214;2023-04-24T01:13:52;12.20;81.30
54938;DHT22;52756;52.826;6.214;2023-04-24T01:16:18;12.20;81.30
54938;DHT22;52756;52.826;6.214;2023-04-24T01:18:46;12.20;81.20
54938;DHT22;52756;52.826;6.214;2023-04-24T01:21:14;12.20;81.20
54938;DHT22;52756;52.826;6.214;2023-04-24T01:23:44;12.30;81.20
54938;DHT22;52756;52.826;6.214;2023-04-24T01:26:12;12.30;81.10
54938;DHT22;52756;52.826;6.214;2023-04-24T01:28:38;12.30;81.10
54938;DHT22;52756;52.826;6.214;2023-04-24T01:31:04;12.30;81.00
54938;DHT22;52756;52.826;6.214;2023-04-24T01:33:30;12.30;81.10
54938;DHT22;52756;52.826;6.214;2023-04-24T01:35:55;12.30;81.10
54938;DHT22;52756;52.826;6.214;2023-04-24T01:38:21;12.30;81.10
54938;DHT22;52756;52.826;6.214;2023-04-24T01:40:47;12.30;81.00
54938;DHT22;52756;52.826;6.214;2023-04-24T01:43:13;12.30;81.00
54938;DHT22;52756;52.826;6.214;2023-04-24T01:45:39;12.30;81.10
54938;DHT22;52756;52.826;6.214;2023-04-24T01:48:05;12.30;81.10
54938;DHT22;52756;52.826;6.214;2023-04-24T01:50:31;12.30;81.10
54938;DHT22;52756;52.826;6.214;2023-04-24T01:52:56;12.30;81.00
54938;DHT22;52756;52.826;6.214;2023-04-24T01:55:22;12.30;81.10
54938;DHT22;52756;52.826;6.214;2023-04-24T01:57:49;12.30;81.00
54938;DHT22;52756;52.826;6.214;2023-04-24T02:00:15;12.30;80.90
54938;DHT22;52756;52.826;6.214;2023-04-24T02:02:41;12.30;80.70
54938;DHT22;52756;52.826;6.214;2023-04-24T02:05:08;12.30;80.60
54938;DHT22;52756;52.826;6.214;2023-04-24T02:07:33;12.30;80.50
54938;DHT22;52756;52.826;6.214;2023-04-24T02:09:59;12.30;80.40
54938;DHT22;52756;52.826;6.214;2023-04-24T02:12:25;12.30;80.30
54938;DHT22;52756;52.826;6.214;2023-04-24T02:14:50;12.30;80.20
54938;DHT22;52756;52.826;6.214;2023-04-24T02:17:16;12.30;80.20
54938;DHT22;52756;52.826;6.214;2023-04-24T02:19:43;12.30;80.00
54938;DHT22;52756;52.826;6.214;2023-04-24T02:22:08;12.30;79.90
54938;DHT22;52756;52.826;6.214;2023-04-24T02:24:34;12.30;80.20
54938;DHT22;52756;52.826;6.214;2023-04-24T02:27:00;12.30;79.80
54938;DHT22;52756;52.826;6.214;2023-04-24T02:29:27;12.30;79.80
54938;DHT22;52756;52.826;6.214;2023-04-24T02:31:53;12.30;79.70
54938;DHT22;52756;52.826;6.214;2023-04-24T02:34:24;12.30;79.70
54938;DHT22;52756;52.826;6.214;2023-04-24T02:36:50;12.30;79.70
54938;DHT22;52756;52.826;6.214;2023-04-24T02:39:16;12.30;79.70
54938;DHT22;52756;52.826;6.214;2023-04-24T02:41:43;12.30;79.70
54938;DHT22;52756;52.826;6.214;2023-04-24T02:44:09;12.30;79.70
54938;DHT22;52756;52.826;6.214;2023-04-24T02:46:35;12.30;79.70
54938;DHT22;52756;52.826;6.214;2023-04-24T02:49:01;12.30;79.70
54938;DHT22;52756;52.826;6.214;2023-04-24T02:51:26;12.30;79.70
54938;DHT22;52756;52.826;6.214;2023-04-24T02:53:52;12.30;79.70
54938;DHT22;52756;52.826;6.214;2023-04-24T02:56:18;12.30;79.70
54938;DHT22;52756;52.826;6.214;2023-04-24T02:58:44;12.30;79.70
54938;DHT22;52756;52.826;6.214;2023-04-24T03:01:09;12.30;79.70
54938;DHT22;52756;52.826;6.214;2023-04-24T03:03:36;12.30;79.60
54938;DHT22;52756;52.826;6.214;2023-04-24T03:06:02;12.30;79.60
54938;DHT22;52756;52.826;6.214;2023-04-24T03:08:31;12.30;79.70
54938;DHT22;52756;52.826;6.214;2023-04-24T03:10:57;12.30;79.80
54938;DHT22;52756;52.826;6.214;2023-04-24T03:13:23;12.30;79.80
54938;DHT22;52756;52.826;6.214;2023-04-24T03:15:48;12.20;79.80
54938;DHT22;52756;52.826;6.214;2023-04-24T03:18:14;12.20;79.80
54938;DHT22;52756;52.826;6.214;2023-04-24T03:20:40;12.20;79.80
54938;DHT22;52756;52.826;6.214;2023-04-24T03:23:06;12.20;79.70
54938;DHT22;52756;52.826;6.214;2023-04-24T03:25:32;12.20;79.80
54938;DHT22;52756;52.826;6.214;2023-04-24T03:27:57;12.20;79.90
54938;DHT22;52756;52.826;6.214;2023-04-24T03:30:23;12.20;79.90
54938;DHT22;52756;52.826;6.214;2023-04-24T03:32:49;12.20;79.90
54938;DHT22;52756;52.826;6.214;2023-04-24T03:35:15;12.20;80.00
54938;DHT22;52756;52.826;6.214;2023-04-24T03:37:40;12.20;80.00
54938;DHT22;52756;52.826;6.214;2023-04-24T03:40:07;12.20;80.00
54938;DHT22;52756;52.826;6.214;2023-04-24T03:42:33;12.20;80.50
54938;DHT22;52756;52.826;6.214;2023-04-24T03:44:59;12.20;80.10
54938;DHT22;52756;52.826;6.214;2023-04-24T03:47:25;12.20;80.20
54938;DHT22;52756;52.826;6.214;2023-04-24T03:49:50;12.20;80.20
54938;DHT22;52756;52.826;6.214;2023-04-24T03:52:17;12.20;80.20
54938;DHT22;52756;52.826;6.214;2023-04-24T03:54:42;12.20;80.20
54938;DHT22;52756;52.826;6.214;2023-04-24T03:57:08;12.20;80.20
54938;DHT22;52756;52.826;6.214;2023-04-24T03:59:34;12.20;80.20
54938;DHT22;52756;52.826;6.214;2023-04-24T04:01:59;12.20;80.30
54938;DHT22;52756;52.826;6.214;2023-04-24T04:04:25;12.20;80.30
54938;DHT22;52756;52.826;6.214;2023-04-24T04:06:51;12.20;80.30
54938;DHT22;52756;52.826;6.214;2023-04-24T04:09:17;12.20;80.40
54938;DHT22;52756;52.826;6.214;2023-04-24T04:11:43;12.20;80.40
54938;DHT22;52756;52.826;6.214;2023-04-24T04:14:08;12.30;80.50
54938;DHT22;52756;52.826;6.214;2023-04-24T04:16:34;12.30;80.50
54938;DHT22;52756;52.826;6.214;2023-04-24T04:19:02;12.30;80.60
54938;DHT22;52756;52.826;6.214;2023-04-24T04:21:28;12.30;80.60
54938;DHT22;52756;52.826;6.214;2023-04-24T04:23:54;12.30;80.60
54938;DHT22;52756;52.826;6.214;2023-04-24T04:26:20;12.30;80.50
54938;DHT22;52756;52.826;6.214;2023-04-24T04:28:47;12.30;80.50
54938;DHT22;52756;52.826;6.214;2023-04-24T04:31:13;12.30;80.40
54938;DHT22;52756;52.826;6.214;2023-04-24T04:33:39;12.20;80.20
54938;DHT22;52756;52.826;6.214;2023-04-24T04:36:05;12.30;80.40
54938;DHT22;52756;52.826;6.214;2023-04-24T04:38:31;12.30;80.50
54938;DHT22;52756;52.826;6.214;2023-04-24T04:40:56;12.20;80.60
54938;DHT22;52756;52.826;6.214;2023-04-24T04:43:23;12.30;80.70
54938;DHT22;52756;52.826;6.214;2023-04-24T04:45:50;12.20;80.80
54938;DHT22;52756;52.826;6.214;2023-04-24T04:48:17;12.20;80.90
54938;DHT22;52756;52.826;6.214;2023-04-24T04:50:43;12.20;81.00
54938;DHT22;52756;52.826;6.214;2023-04-24T04:53:09;12.20;81.00
54938;DHT22;52756;52.826;6.214;2023-04-24T04:55:34;12.20;81.10
54938;DHT22;52756;52.826;6.214;2023-04-24T04:58:00;12.20;81.30
54938;DHT22;52756;52.826;6.214;2023-04-24T05:00:26;12.20;81.40
54938;DHT22;52756;52.826;6.214;2023-04-24T05:02:52;12.20;81.40
54938;DHT22;52756;52.826;6.214;2023-04-24T05:05:18;12.20;81.50
54938;DHT22;52756;52.826;6.214;2023-04-24T05:07:44;12.20;81.60
54938;DHT22;52756;52.826;6.214;2023-04-24T05:10:10;12.10;81.50
54938;DHT22;52756;52.826;6.214;2023-04-24T05:12:36;12.10;81.50
54938;DHT22;52756;52.826;6.214;2023-04-24T05:15:02;12.10;81.40
54938;DHT22;52756;52.826;6.214;2023-04-24T05:17:28;12.10;81.50
54938;DHT22;52756;52.826;6.214;2023-04-24T05:19:54;12.00;81.50
54938;DHT22;52756;52.826;6.214;2023-04-24T05:22:20;12.00;82.00
54938;DHT22;52756;52.826;6.214;2023-04-24T05:24:47;12.00;81.60
54938;DHT22;52756;52.826;6.214;2023-04-24T05:27:13;12.00;81.70
54938;DHT22;52756;52.826;6.214;2023-04-24T05:29:39;12.00;81.80
54938;DHT22;52756;52.826;6.214;2023-04-24T05:32:05;12.00;81.90
54938;DHT22;52756;52.826;6.214;2023-04-24T05:34:31;12.00;82.00
54938;DHT22;52756;52.826;6.214;2023-04-24T05:36:56;12.00;82.00
54938;DHT22;52756;52.826;6.214;2023-04-24T05:39:22;11.90;82.00
54938;DHT22;52756;52.826;6.214;2023-04-24T05:41:50;11.90;82.00
54938;DHT22;52756;52.826;6.214;2023-04-24T05:44:16;12.00;82.00
54938;DHT22;52756;52.826;6.214;2023-04-24T05:46:42;11.90;82.00
54938;DHT22;52756;52.826;6.214;2023-04-24T05:49:07;11.90;82.10
54938;DHT22;52756;52.826;6.214;2023-04-24T05:51:33;11.90;82.00
54938;DHT22;52756;52.826;6.214;2023-04-24T05:53:59;11.90;82.10
54938;DHT22;52756;52.826;6.214;2023-04-24T05:56:25;11.80;82.00
54938;DHT22;52756;52.826;6.214;2023-04-24T05:58:50;11.90;82.10
54938;DHT22;52756;52.826;6.214;2023-04-24T06:01:16;11.90;82.10
54938;DHT22;52756;52.826;6.214;2023-04-24T06:03:42;11.80;82.00
54938;DHT22;52756;52.826;6.214;2023-04-24T06:06:08;11.80;82.00
54938;DHT22;52756;52.826;6.214;2023-04-24T06:08:34;11.80;82.00
54938;DHT22;52756;52.826;6.214;2023-04-24T06:11:00;11.80;82.00
54938;DHT22;52756;52.826;6.214;2023-04-24T06:13:26;11.80;82.00
54938;DHT22;52756;52.826;6.214;2023-04-24T06:15:52;11.80;82.10
54938;DHT22;52756;52.826;6.214;2023-04-24T06:18:18;11.80;82.10
54938;DHT22;52756;52.826;6.214;2023-04-24T06:20:45;11.80;82.10
54938;DHT22;52756;52.826;6.214;2023-04-24T06:23:11;11.70;82.10
54938;DHT22;52756;52.826;6.214;2023-04-24T06:25:37;11.80;82.10
54938;DHT22;52756;52.826;6.214;2023-04-24T06:28:03;11.70;82.00
54938;DHT22;52756;52.826;6.214;2023-04-24T06:30:30;11.70;82.00
54938;DHT22;52756;52.826;6.214;2023-04-24T06:32:56;11.70;82.10
54938;DHT22;52756;52.826;6.214;2023-04-24T06:35:21;11.70;82.20
54938;DHT22;52756;52.826;6.214;2023-04-24T06:37:47;11.70;82.30
54938;DHT22;52756;52.826;6.214;2023-04-24T06:40:13;11.70;82.30
54938;DHT22;52756;52.826;6.214;2023-04-24T06:42:38;11.70;82.20
54938;DHT22;52756;52.826;6.214;2023-04-24T06:45:05;11.70;82.20
54938;DHT22;52756;52.826;6.214;2023-04-24T06:47:31;11.70;82.10
54938;DHT22;52756;52.826;6.214;2023-04-24T06:49:57;11.70;82.20
54938;DHT22;52756;52.826;6.214;2023-04-24T06:52:24;11.60;82.10
54938;DHT22;52756;52.826;6.214;2023-04-24T06:54:50;11.60;82.00
54938;DHT22;52756;52.826;6.214;2023-04-24T06:57:15;11.60;82.00
54938;DHT22;52756;52.826;6.214;2023-04-24T06:59:44;11.60;81.90
54938;DHT22;52756;52.826;6.214;2023-04-24T07:02:09;11.60;82.00
54938;DHT22;52756;52.826;6.214;2023-04-24T07:04:35;11.80;82.10
54938;DHT22;52756;52.826;6.214;2023-04-24T07:07:02;11.60;81.90
54938;DHT22;52756;52.826;6.214;2023-04-24T07:09:28;11.60;81.90
54938;DHT22;52756;52.826;6.214;2023-04-24T07:11:57;11.60;82.00
54938;DHT22;52756;52.826;6.214;2023-04-24T07:14:22;11.60;82.00
54938;DHT22;52756;52.826;6.214;2023-04-24T07:16:48;11.60;82.00
54938;DHT22;52756;52.826;6.214;2023-04-24T07:19:14;11.60;82.00
54938;DHT22;52756;52.826;6.214;2023-04-24T07:21:40;11.60;82.00
54938;DHT22;52756;52.826;6.214;2023-04-24T07:24:06;11.50;81.90
54938;DHT22;52756;52.826;6.214;2023-04-24T07:26:37;11.50;81.90
54938;DHT22;52756;52.826;6.214;2023-04-24T07:29:03;11.50;81.90
54938;DHT22;52756;52.826;6.214;2023-04-24T07:31:29;11.50;81.90
54938;DHT22;52756;52.826;6.214;2023-04-24T07:33:55;11.50;81.90
54938;DHT22;52756;52.826;6.214;2023-04-24T07:36:23;11.50;82.00
54938;DHT22;52756;52.826;6.214;2023-04-24T07:38:49;11.50;82.00
54938;DHT22;52756;52.826;6.214;2023-04-24T07:41:15;11.50;81.90
54938;DHT22;52756;52.826;6.214;2023-04-24T07:43:41;11.50;82.00
54938;DHT22;52756;52.826;6.214;2023-04-24T07:46:08;11.50;81.90
54938;DHT22;52756;52.826;6.214;2023-04-24T07:48:35;11.50;81.80
54938;DHT22;52756;52.826;6.214;2023-04-24T07:51:00;11.50;81.90
54938;DHT22;52756;52.826;6.214;2023-04-24T07:53:26;11.50;81.80
54938;DHT22;52756;52.826;6.214;2023-04-24T07:55:53;11.40;81.60
54938;DHT22;52756;52.826;6.214;2023-04-24T07:58:19;11.40;81.50
54938;DHT22;52756;52.826;6.214;2023-04-24T08:00:45;11.40;81.40
54938;DHT22;52756;52.826;6.214;2023-04-24T08:03:10;11.40;81.40
54938;DHT22;52756;52.826;6.214;2023-04-24T08:05:38;11.30;81.20
54938;DHT22;52756;52.826;6.214;2023-04-24T08:08:04;11.30;81.10
54938;DHT22;52756;52.826;6.214;2023-04-24T08:10:29;11.20;81.10
54938;DHT22;52756;52.826;6.214;2023-04-24T08:12:55;11.20;81.20
54938;DHT22;52756;52.826;6.214;2023-04-24T08:15:21;11.20;81.20
54938;DHT22;52756;52.826;6.214;2023-04-24T08:17:47;11.20;81.10
54938;DHT22;52756;52.826;6.214;2023-04-24T08:20:13;11.20;80.90
54938;DHT22;52756;52.826;6.214;2023-04-24T08:22:41;11.10;80.70
54938;DHT22;52756;52.826;6.214;2023-04-24T08:25:08;11.10;80.60
54938;DHT22;52756;52.826;6.214;2023-04-24T08:27:34;11.10;80.50
54938;DHT22;52756;52.826;6.214;2023-04-24T08:29:59;11.10;80.50
54938;DHT22;52756;52.826;6.214;2023-04-24T08:32:26;11.10;80.40
54938;DHT22;52756;52.826;6.214;2023-04-24T08:34:55;11.00;80.20
54938;DHT22;52756;52.826;6.214;2023-04-24T08:37:22;11.00;80.20
54938;DHT22;52756;52.826;6.214;2023-04-24T08:39:49;11.00;80.10
54938;DHT22;52756;52.826;6.214;2023-04-24T08:42:16;10.90;80.00
54938;DHT22;52756;52.826;6.214;2023-04-24T08:44:43;11.00;80.10
54938;DHT22;52756;52.826;6.214;2023-04-24T08:47:10;10.90;80.00
54938;DHT22;52756;52.826;6.214;2023-04-24T08:49:37;10.90;80.10
54938;DHT22;52756;52.826;6.214;2023-04-24T08:52:03;10.90;80.20
54938;DHT22;52756;52.826;6.214;2023-04-24T08:54:29;10.90;80.30
54938;DHT22;52756;52.826;6.214;2023-04-24T08:56:59;10.90;80.40
54938;DHT22;52756;52.826;6.214;2023-04-24T08:59:27;10.90;80.50
54938;DHT22;52756;52.826;6.214;2023-04-24T09:01:55;10.90;80.40
54938;DHT22;52756;52.826;6.214;2023-04-24T09:04:22;10.90;80.40
54938;DHT22;52756;52.826;6.214;2023-04-24T09:06:56;10.90;80.40
54938;DHT22;52756;52.826;6.214;2023-04-24T09:09:23;10.90;80.40
54938;DHT22;52756;52.826;6.214;2023-04-24T09:11:50;10.90;80.50
54938;DHT22;52756;52.826;6.214;2023-04-24T09:14:17;10.90;80.40
54938;DHT22;52756;52.826;6.214;2023-04-24T09:16:43;10.90;80.20
54938;DHT22;52756;52.826;6.214;2023-04-24T09:19:08;10.90;80.20
54938;DHT22;52756;52.826;6.214;2023-04-24T09:21:35;10.90;80.20
54938;DHT22;52756;52.826;6.214;2023-04-24T09:24:03;10.90;80.10
54938;DHT22;52756;52.826;6.214;2023-04-24T09:26:35;10.90;79.90
54938;DHT22;52756;52.826;6.214;2023-04-24T09:29:01;10.90;79.90
54938;DHT22;52756;52.826;6.214;2023-04-24T09:31:28;10.90;79.90
54938;DHT22;52756;52.826;6.214;2023-04-24T09:34:03;10.90;79.90
54938;DHT22;52756;52.826;6.214;2023-04-24T09:36:41;10.90;79.90
54938;DHT22;52756;52.826;6.214;2023-04-24T09:39:12;10.90;80.10
54938;DHT22;52756;52.826;6.214;2023-04-24T09:41:53;10.90;79.80
54938;DHT22;52756;52.826;6.214;2023-04-24T09:44:22;10.90;79.30
54938;DHT22;52756;52.826;6.214;2023-04-24T09:46:56;10.90;79.10
54938;DHT22;52756;52.826;6.214;2023-04-24T09:49:27;10.90;79.00
54938;DHT22;52756;52.826;6.214;2023-04-24T09:52:08;10.90;79.00
54938;DHT22;52756;52.826;6.214;2023-04-24T09:54:34;11.00;78.90
54938;DHT22;52756;52.826;6.214;2023-04-24T09:56:59;11.00;78.70
54938;DHT22;52756;52.826;6.214;2023-04-24T09:59:26;11.00;78.30
54938;DHT22;52756;52.826;6.214;2023-04-24T10:01:51;10.90;78.10
54938;DHT22;52756;52.826;6.214;2023-04-24T10:04:28;10.90;78.20
54938;DHT22;52756;52.826;6.214;2023-04-24T10:06:56;10.90;78.30
54938;DHT22;52756;52.826;6.214;2023-04-24T10:09:24;10.90;78.60
54938;DHT22;52756;52.826;6.214;2023-04-24T10:11:51;10.80;78.30
54938;DHT22;52756;52.826;6.214;2023-04-24T10:14:23;10.80;78.50
54938;DHT22;52756;52.826;6.214;2023-04-24T10:16:50;10.80;77.80
54938;DHT22;52756;52.826;6.214;2023-04-24T10:19:17;10.80;77.70
54938;DHT22;52756;52.826;6.214;2023-04-24T10:21:46;10.80;77.40
54938;DHT22;52756;52.826;6.214;2023-04-24T10:24:21;10.70;77.20
54938;DHT22;52756;52.826;6.214;2023-04-24T10:26:47;10.80;77.60
54938;DHT22;52756;52.826;6.214;2023-04-24T10:29:14;10.70;77.10
54938;DHT22;52756;52.826;6.214;2023-04-24T10:31:41;10.70;77.20
54938;DHT22;52756;52.826;6.214;2023-04-24T10:34:09;10.70;77.50
54938;DHT22;52756;52.826;6.214;2023-04-24T10:36:39;10.80;77.60
54938;DHT22;52756;52.826;6.214;2023-04-24T10:39:09;10.80;77.50
54938;DHT22;52756;52.826;6.214;2023-04-24T10:41:39;10.80;77.40
54938;DHT22;52756;52.826;6.214;2023-04-24T10:44:14;10.80;77.40
54938;DHT22;52756;52.826;6.214;2023-04-24T10:46:46;10.80;77.20
54938;DHT22;52756;52.826;6.214;2023-04-24T10:49:12;10.70;77.30
54938;DHT22;52756;52.826;6.214;2023-04-24T10:51:48;10.70;77.30
54938;DHT22;52756;52.826;6.214;2023-04-24T10:54:26;10.70;77.50
54938;DHT22;52756;52.826;6.214;2023-04-24T10:56:53;10.70;77.70
54938;DHT22;52756;52.826;6.214;2023-04-24T10:59:35;10.60;77.70
54938;DHT22;52756;52.826;6.214;2023-04-24T11:02:02;10.70;77.90
54938;DHT22;52756;52.826;6.214;2023-04-24T11:04:32;10.60;78.10
54938;DHT22;52756;52.826;6.214;2023-04-24T11:06:58;10.60;78.10
54938;DHT22;52756;52.826;6.214;2023-04-24T11:09:27;10.60;78.20
54938;DHT22;52756;52.826;6.214;2023-04-24T11:12:06;10.60;77.90
54938;DHT22;52756;52.826;6.214;2023-04-24T11:14:59;10.70;78.00
54938;DHT22;52756;52.826;6.214;2023-04-24T11:17:36;10.70;77.70
54938;DHT22;52756;52.826;6.214;2023-04-24T11:20:10;10.70;77.30
54938;DHT22;52756;52.826;6.214;2023-04-24T11:22:38;10.70;77.10
54938;DHT22;52756;52.826;6.214;2023-04-24T11:25:08;10.80;76.80
54938;DHT22;52756;52.826;6.214;2023-04-24T11:27:42;10.80;76.40
54938;DHT22;52756;52.826;6.214;2023-04-24T11:30:09;10.90;75.50
54938;DHT22;52756;52.826;6.214;2023-04-24T11:32:37;10.90;74.40
54938;DHT22;52756;52.826;6.214;2023-04-24T11:37:43;10.90;73.10
54938;DHT22;52756;52.826;6.214;2023-04-24T11:40:11;10.90;73.20
54938;DHT22;52756;52.826;6.214;2023-04-24T11:42:38;10.90;73.50
54938;DHT22;52756;52.826;6.214;2023-04-24T11:45:12;10.90;74.10
54938;DHT22;52756;52.826;6.214;2023-04-24T11:47:39;10.90;74.50
54938;DHT22;52756;52.826;6.214;2023-04-24T11:50:12;10.90;74.80
54938;DHT22;52756;52.826;6.214;2023-04-24T11:52:41;10.90;75.00
54938;DHT22;52756;52.826;6.214;2023-04-24T11:57:39;11.00;75.30
54938;DHT22;52756;52.826;6.214;2023-04-24T12:00:22;11.00;74.90
54938;DHT22;52756;52.826;6.214;2023-04-24T12:02:48;11.10;74.10
54938;DHT22;52756;52.826;6.214;2023-04-24T12:05:27;11.10;73.50
54938;DHT22;52756;52.826;6.214;2023-04-24T12:07:53;11.10;73.60
54938;DHT22;52756;52.826;6.214;2023-04-24T12:10:23;10.90;74.10
54938;DHT22;52756;52.826;6.214;2023-04-24T12:12:50;10.90;74.50
54938;DHT22;52756;52.826;6.214;2023-04-24T12:15:18;10.80;74.80
54938;DHT22;52756;52.826;6.214;2023-04-24T12:17:44;10.80;75.30
54938;DHT22;52756;52.826;6.214;2023-04-24T12:20:10;10.70;75.70
54938;DHT22;52756;52.826;6.214;2023-04-24T12:22:57;10.80;76.00
54938;DHT22;52756;52.826;6.214;2023-04-24T12:25:26;10.80;76.10
54938;DHT22;52756;52.826;6.214;2023-04-24T12:27:54;10.90;76.20
54938;DHT22;52756;52.826;6.214;2023-04-24T12:30:22;10.90;75.80
54938;DHT22;52756;52.826;6.214;2023-04-24T12:32:51;11.00;75.90
54938;DHT22;52756;52.826;6.214;2023-04-24T12:35:22;11.10;76.00
54938;DHT22;52756;52.826;6.214;2023-04-24T12:37:48;11.10;75.90
54938;DHT22;52756;52.826;6.214;2023-04-24T12:40:14;11.20;75.80
54938;DHT22;52756;52.826;6.214;2023-04-24T12:42:49;11.20;75.20
54938;DHT22;52756;52.826;6.214;2023-04-24T12:45:16;11.30;73.60
54938;DHT22;52756;52.826;6.214;2023-04-24T12:47:43;11.30;73.10
54938;DHT22;52756;52.826;6.214;2023-04-24T12:50:11;11.20;72.80
54938;DHT22;52756;52.826;6.214;2023-04-24T12:52:37;11.20;73.00
54938;DHT22;52756;52.826;6.214;2023-04-24T12:55:03;11.20;73.20
54938;DHT22;52756;52.826;6.214;2023-04-24T12:57:30;11.20;73.20
54938;DHT22;52756;52.826;6.214;2023-04-24T12:59:58;11.10;73.00
54938;DHT22;52756;52.826;6.214;2023-04-24T13:02:25;11.10;73.10
54938;DHT22;52756;52.826;6.214;2023-04-24T13:04:51;11.10;73.10
54938;DHT22;52756;52.826;6.214;2023-04-24T13:07:17;11.20;73.20
54938;DHT22;52756;52.826;6.214;2023-04-24T13:09:44;11.20;73.20
54938;DHT22;52756;52.826;6.214;2023-04-24T13:12:11;11.10;73.10
54938;DHT22;52756;52.826;6.214;2023-04-24T13:14:37;11.10;72.70
54938;DHT22;52756;52.826;6.214;2023-04-24T13:17:03;11.20;72.80
54938;DHT22;52756;52.826;6.214;2023-04-24T13:19:34;11.10;72.80
54938;DHT22;52756;52.826;6.214;2023-04-24T13:22:00;11.20;72.50
54938;DHT22;52756;52.826;6.214;2023-04-24T13:24:26;11.20;72.30
54938;DHT22;52756;52.826;6.214;2023-04-24T13:26:53;11.20;72.20
54938;DHT22;52756;52.826;6.214;2023-04-24T13:29:19;11.20;72.20
54938;DHT22;52756;52.826;6.214;2023-04-24T13:31:46;11.10;72.10
54938;DHT22;52756;52.826;6.214;2023-04-24T13:34:13;11.10;72.00
54938;DHT22;52756;52.826;6.214;2023-04-24T13:36:39;11.10;71.90
54938;DHT22;52756;52.826;6.214;2023-04-24T13:39:05;11.00;71.70
54938;DHT22;52756;52.826;6.214;2023-04-24T13:41:33;10.90;71.60
54938;DHT22;52756;52.826;6.214;2023-04-24T13:43:59;10.80;71.80
54938;DHT22;52756;52.826;6.214;2023-04-24T13:46:25;10.70;72.10
54938;DHT22;52756;52.826;6.214;2023-04-24T13:48:51;10.70;72.20
54938;DHT22;52756;52.826;6.214;2023-04-24T13:51:17;10.70;72.40
54938;DHT22;52756;52.826;6.214;2023-04-24T13:53:42;10.70;72.80
54938;DHT22;52756;52.826;6.214;2023-04-24T13:56:08;10.60;73.10
54938;DHT22;52756;52.826;6.214;2023-04-24T13:58:35;10.60;73.30
54938;DHT22;52756;52.826;6.214;2023-04-24T14:01:02;10.60;73.40
54938;DHT22;52756;52.826;6.214;2023-04-24T14:03:29;10.70;73.40
54938;DHT22;52756;52.826;6.214;2023-04-24T14:05:55;10.70;73.20
54938;DHT22;52756;52.826;6.214;2023-04-24T14:08:21;10.70;73.20
54938;DHT22;52756;52.826;6.214;2023-04-24T14:10:46;10.70;73.20
54938;DHT22;52756;52.826;6.214;2023-04-24T14:13:12;10.70;73.20
54938;DHT22;52756;52.826;6.214;2023-04-24T14:15:38;10.70;73.00
54938;DHT22;52756;52.826;6.214;2023-04-24T14:18:04;10.80;73.10
54938;DHT22;52756;52.826;6.214;2023-04-24T14:20:30;10.80;73.00
54938;DHT22;52756;52.826;6.214;2023-04-24T14:22:56;10.80;72.90
54938;DHT22;52756;52.826;6.214;2023-04-24T14:25:24;10.80;72.90
54938;DHT22;52756;52.826;6.214;2023-04-24T14:27:50;10.80;72.90
54938;DHT22;52756;52.826;6.214;2023-04-24T14:30:16;10.80;72.90
54938;DHT22;52756;52.826;6.214;2023-04-24T14:32:45;10.90;73.00
54938;DHT22;52756;52.826;6.214;2023-04-24T14:35:11;10.90;73.00
54938;DHT22;52756;52.826;6.214;2023-04-24T14:37:37;10.90;73.00
54938;DHT22;52756;52.826;6.214;2023-04-24T14:40:03;11.00;73.00
54938;DHT22;52756;52.826;6.214;2023-04-24T14:42:33;11.00;72.80
54938;DHT22;52756;52.826;6.214;2023-04-24T14:44:59;11.00;72.60
54938;DHT22;52756;52.826;6.214;2023-04-24T14:47:25;11.00;72.70
54938;DHT22;52756;52.826;6.214;2023-04-24T14:49:51;11.10;72.60
54938;DHT22;52756;52.826;6.214;2023-04-24T14:52:17;11.10;72.70
54938;DHT22;52756;52.826;6.214;2023-04-24T14:54:43;11.10;72.80
54938;DHT22;52756;52.826;6.214;2023-04-24T14:57:09;11.20;72.50
54938;DHT22;52756;52.826;6.214;2023-04-24T14:59:35;11.20;71.90
54938;DHT22;52756;52.826;6.214;2023-04-24T15:02:00;11.20;72.00
54938;DHT22;52756;52.826;6.214;2023-04-24T15:04:28;11.20;72.00
54938;DHT22;52756;52.826;6.214;2023-04-24T15:06:54;11.30;71.80
54938;DHT22;52756;52.826;6.214;2023-04-24T15:09:24;11.30;71.50
54938;DHT22;52756;52.826;6.214;2023-04-24T15:11:50;11.30;71.60
54938;DHT22;52756;52.826;6.214;2023-04-24T15:14:17;11.30;71.60
54938;DHT22;52756;52.826;6.214;2023-04-24T15:16:44;11.30;71.40
54938;DHT22;52756;52.826;6.214;2023-04-24T15:19:10;11.40;71.60
54938;DHT22;52756;52.826;6.214;2023-04-24T15:21:36;11.30;71.80
54938;DHT22;52756;52.826;6.214;2023-04-24T15:24:02;11.30;72.00
54938;DHT22;52756;52.826;6.214;2023-04-24T15:26:28;11.20;72.80
54938;DHT22;52756;52.826;6.214;2023-04-24T15:28:54;11.10;73.40
54938;DHT22;52756;52.826;6.214;2023-04-24T15:31:20;11.10;73.90
54938;DHT22;52756;52.826;6.214;2023-04-24T15:33:45;11.20;74.70